Portada
Imágenes satélite Pronóstico 15 díasClimaPredicción Marítima Ciclones Rayo AeropuertosFAQ Noticias Acerca
El tiempo : Europa África América del Norte América del Sur Asia Australia-Oceanía Otros
Idiomas Contacto

Tarbes Lourdes, Francia

Ossun

latitud: 43-11N, longitud: 000-00W, altitud: 379 m


METAR: LFBT 221400Z AUTO 03006KT 350V050 9999 NSC 21/15 Q1016
TAF: LFBT 221100Z 2212/2312 VRB03KT CAVOK PROB30 TEMPO 2214/2220 4000 SHRA BKN030

Hora: 16:12 (14:12 UTC)

Observación

El informe se hizo hace 12 minutos, a las 14:00 UTC  
Viento 06 kt del norte-noreste, variando entre norte y noreste
Temperatura 21°C
Humedad 69%
Presión 1016 hPa
Visibilidad 10 km o más

Cambiar las unidades

Pronóstico

El informe se hizo hace 03 horas y 12 minutos, a las 11:00 UTC  
Pronóstico válido del 22 a las 12 UTC al 23 a las 12 UTC
Viento 03 kt con dirección variable
Visibilidad 10 km o más
sin nubes por debajo de 1500 m y sin presencia de cumulonimbus.
Probabilidad 30% :
Temporalmente
del 22 a las 14 UTC al 22 a las 20 UTC
Visibilidad 4000 m
Cielo nuboso a una altura de 3000 ft
chaparrones de lluvia
La información que se ofrece en estas páginas está sujeta a una cláusula de exención de responsabilidad
El tiempo : Europa África América del Norte América del Sur Asia Australia-Oceanía Otros
Imágenes satélite Pronóstico 15 díasClimaPredicción Marítima Ciclones Rayo AeropuertosFAQ Idiomas Contacto Noticias Acerca